Kezdőlap
METAR-TAF:

METAR-TAF

Repülőterek :

Naval Outlying Landing Field Imperial Beach (Ream Field)

Imperial Beach, Kalifornia, Amerikai Egyesült Államok

földrajzi szélesség: 32-33-47N, földrajzi hosszúság: 117-06-36W, magasság: 7 m

Jelenlegi meteorológiai megfigyelések

A jelentés 24 perccel ezelõtt készült, 07:56 UTC
Nyugat-délnyugati szél 5 kt
Hőmérséklet 15°C
Páratartalom 77%
Légköri nyomás 1015 hPa
Látótávolság: 16.1 km
Borult 1100 lábon
enyhe esõ

METAR: KNRS 200756Z AUTO 25005KT 10SM -RA OVC011 15/11 A2997 RMK AO2 SLP149 P0000 T01500111 401940144 $

Idő: 01:20 (08:20 UTC)


TAF: hiányzik

Meteorológiai megfigyelések és előrejelzések több, mint 4000 repülőtéren (METAR és TAF jelentéseket).

A térképen piros és sárga pontok jelzik az elérhető meteorológiai állomásokat.

Mozgassa az egeret a pont fölött, hogy megjelenjen az állomás neve.

Azután kattintson az időjárási megfigyelések és előrejelzések megtekintéséhez.

A térkép megváltoztatása: kattintson a fekete keresztel jelölt zöld gombra ráközelítéshez, a vonallal jelölt zöld gombra távolításhoz, vagy a zöld nyilakra a szomszédos térképek eléréséhez.


METAR-TAF: